Time;durP1;ratioP1;P1;durP2;ratioP2;P2;SDS_P1;SDS_P2;PMS_P1;PMS_P2;Temp;Humidity;BMP_temperature;BMP_pressure;BME280_temperature;BME280_humidity;BME280_pressure;Samples;Min_cycle;Max_cycle;Signal;HPM_P1;HPM_P2
2023/06/01 00:00:30;;;;;;;4.72;2.13;;;18.20;99.90;;;;;;4999671;28;20081;-72
2023/06/01 00:02:56;;;;;;;2.78;1.85;;;18.20;99.90;;;;;;4999646;28;20018;-72
2023/06/01 00:05:21;;;;;;;3.30;2.22;;;18.20;99.90;;;;;;4999770;28;20022;-72
2023/06/01 00:07:47;;;;;;;3.60;1.67;;;18.20;99.90;;;;;;4999690;28;20033;-72
2023/06/01 00:10:13;;;;;;;5.40;1.90;;;18.20;99.90;;;;;;4999438;28;20034;-72
2023/06/01 00:12:39;;;;;;;3.35;1.88;;;18.10;99.90;;;;;;5000769;28;20030;-72
2023/06/01 00:15:05;;;;;;;7.05;2.20;;;18.10;99.90;;;;;;5000317;28;20092;-72
2023/06/01 00:17:31;;;;;;;7.25;2.75;;;18.00;99.90;;;;;;4999488;28;20070;-72
2023/06/01 00:20:00;;;;;;;6.20;2.03;;;17.90;99.90;;;;;;4999338;28;20049;-72
2023/06/01 00:22:29;;;;;;;4.55;1.70;;;17.80;99.90;;;;;;4999645;28;20032;-72
2023/06/01 00:24:55;;;;;;;3.90;2.20;;;17.70;99.90;;;;;;4999400;28;20026;-72
2023/06/01 00:27:21;;;;;;;4.60;1.60;;;17.60;99.90;;;;;;4999639;28;20026;-72
2023/06/01 00:29:46;;;;;;;4.78;1.85;;;17.60;99.90;;;;;;5000446;28;20038;-69
2023/06/01 00:32:13;;;;;;;3.33;1.85;;;17.60;99.90;;;;;;4998901;28;20054;-69
2023/06/01 00:34:38;;;;;;;4.22;2.05;;;17.60;99.90;;;;;;5000088;28;20093;-69
2023/06/01 00:37:04;;;;;;;5.07;2.10;;;17.70;99.90;;;;;;4999801;28;20030;-69
2023/06/01 00:39:30;;;;;;;7.97;2.65;;;17.60;99.90;;;;;;4999037;28;20065;-69
2023/06/01 00:41:55;;;;;;;3.45;2.03;;;17.60;99.90;;;;;;4998895;28;20050;-69
2023/06/01 00:44:21;;;;;;;4.53;2.28;;;17.50;99.90;;;;;;4999340;28;20022;-69
2023/06/01 00:46:46;;;;;;;5.00;1.95;;;17.50;99.90;;;;;;4999603;28;20018;-69
2023/06/01 00:49:12;;;;;;;3.67;2.10;;;17.50;99.90;;;;;;4999687;28;20049;-69
2023/06/01 00:51:37;;;;;;;4.90;2.67;;;17.40;99.90;;;;;;4999167;28;20022;-69
2023/06/01 00:54:03;;;;;;;3.15;2.00;;;17.40;99.90;;;;;;4998780;28;20031;-69
2023/06/01 00:56:31;;;;;;;6.80;1.83;;;17.40;99.90;;;;;;4998864;28;20030;-69
2023/06/01 00:58:57;;;;;;;8.23;2.15;;;17.40;99.90;;;;;;4998714;28;20037;-69
2023/06/01 01:01:24;;;;;;;4.18;1.80;;;17.40;99.90;;;;;;4998924;28;20018;-69
2023/06/01 01:03:57;;;;;;;4.55;1.75;;;17.30;99.90;;;;;;4999374;28;20022;-69
2023/06/01 01:06:28;;;;;;;5.97;1.90;;;17.30;99.90;;;;;;4999420;28;20026;-69
2023/06/01 01:09:22;;;;;;;3.92;1.75;;;17.30;99.90;;;;;;4999641;28;20029;-69
2023/06/01 01:12:17;;;;;;;10.82;2.13;;;17.40;99.90;;;;;;4999183;28;20034;-69
2023/06/01 01:14:51;;;;;;;6.05;2.17;;;17.20;99.90;;;;;;4962099;28;20035;-69
2023/06/01 01:17:42;;;;;;;6.15;2.17;;;17.20;99.90;;;;;;4962153;28;20031;-69
2023/06/01 01:20:24;;;;;;;6.07;1.90;;;17.10;99.90;;;;;;4959690;28;20126;-69
2023/06/01 01:22:56;;;;;;;5.10;1.55;;;17.10;99.90;;;;;;4962491;28;20023;-69
2023/06/01 01:26:00;;;;;;;6.03;2.10;;;17.20;99.90;;;;;;4961951;28;20055;-69
2023/06/01 01:29:01;;;;;;;4.75;1.65;;;17.20;99.90;;;;;;4961561;28;20031;-69
2023/06/01 01:31:29;;;;;;;2.22;1.75;;;17.10;99.90;;;;;;4977718;28;20142;-69
2023/06/01 01:33:57;;;;;;;3.47;2.22;;;17.00;99.90;;;;;;4961817;28;20022;-69
2023/06/01 01:36:23;;;;;;;5.55;1.85;;;17.10;99.90;;;;;;4977878;28;20022;-69
2023/06/01 01:38:49;;;;;;;6.15;2.17;;;17.10;99.90;;;;;;4977977;28;20042;-69
2023/06/01 01:41:15;;;;;;;3.17;1.58;;;17.10;99.90;;;;;;4961513;28;20054;-69
2023/06/01 01:43:41;;;;;;;3.88;1.90;;;17.20;99.90;;;;;;4977505;28;20030;-69
2023/06/01 01:46:26;;;;;;;2.65;1.65;;;17.10;99.90;;;;;;4961737;28;20035;-69
2023/06/01 01:48:54;;;;;;;5.15;2.15;;;17.00;99.90;;;;;;4961476;28;20050;-69
2023/06/01 01:51:56;;;;;;;6.82;2.10;;;17.00;99.90;;;;;;4976503;28;20045;-70
2023/06/01 01:54:23;;;;;;;7.13;2.05;;;17.00;99.90;;;;;;4984297;28;20030;-69
2023/06/01 01:56:50;;;;;;;3.25;2.00;;;17.00;99.90;;;;;;4997654;28;20030;-69
2023/06/01 01:59:17;;;;;;;9.05;2.22;;;17.00;99.90;;;;;;4997280;28;20113;-69
2023/06/01 02:01:44;;;;;;;4.22;1.88;;;16.90;99.90;;;;;;4998444;28;20057;-69
2023/06/01 02:04:10;;;;;;;7.05;2.38;;;16.80;99.90;;;;;;4998407;28;20033;-69
2023/06/01 02:06:36;;;;;;;5.75;1.98;;;16.70;99.90;;;;;;4998254;28;20019;-69
2023/06/01 02:09:06;;;;;;;5.82;2.40;;;16.80;99.90;;;;;;4997653;28;20034;-69
2023/06/01 02:11:31;;;;;;;3.65;1.90;;;16.70;99.90;;;;;;4998205;28;20022;-69
2023/06/01 02:13:57;;;;;;;4.57;1.80;;;16.70;99.90;;;;;;4997327;28;20019;-69
2023/06/01 02:16:22;;;;;;;4.63;2.25;;;16.70;99.90;;;;;;4998016;28;20034;-69
2023/06/01 02:18:48;;;;;;;5.97;1.58;;;16.70;99.90;;;;;;4997046;28;20064;-69
2023/06/01 02:21:13;;;;;;;3.95;2.05;;;16.60;99.90;;;;;;4998034;28;20121;-69
2023/06/01 02:23:40;;;;;;;5.35;1.77;;;16.50;99.90;;;;;;4997110;28;20022;-69
2023/06/01 02:26:07;;;;;;;6.43;1.98;;;16.50;99.90;;;;;;4998338;28;20018;-69
2023/06/01 02:28:32;;;;;;;4.43;2.03;;;16.50;99.90;;;;;;4996923;28;20038;-69
2023/06/01 02:30:58;;;;;;;6.10;2.20;;;16.40;99.90;;;;;;4997314;28;20040;-69
2023/06/01 02:33:24;;;;;;;4.63;1.98;;;16.50;99.90;;;;;;4997091;28;20022;-69
2023/06/01 02:35:50;;;;;;;6.68;2.10;;;16.50;99.90;;;;;;4997671;28;20018;-69
2023/06/01 02:38:16;;;;;;;3.67;1.88;;;16.50;99.90;;;;;;4997104;28;20030;-69
2023/06/01 02:40:42;;;;;;;3.85;2.10;;;16.50;99.90;;;;;;4997691;28;20094;-69
2023/06/01 02:43:08;;;;;;;2.83;1.60;;;16.50;99.90;;;;;;4997029;28;20053;-69
2023/06/01 02:45:33;;;;;;;4.68;2.05;;;16.50;99.90;;;;;;4997766;28;20097;-69
2023/06/01 02:47:59;;;;;;;5.40;2.30;;;16.50;99.90;;;;;;4997024;28;20026;-69
2023/06/01 02:50:25;;;;;;;8.05;2.15;;;16.50;99.90;;;;;;4997336;28;20057;-69
2023/06/01 02:52:50;;;;;;;5.00;2.55;;;16.50;99.90;;;;;;4997678;28;20169;-69
2023/06/01 02:55:16;;;;;;;5.18;2.70;;;16.50;99.90;;;;;;4995942;28;20042;-69
2023/06/01 02:57:41;;;;;;;5.82;1.75;;;16.50;99.90;;;;;;4996590;28;20031;-68
2023/06/01 03:00:15;;;;;;;5.45;1.80;;;16.40;99.90;;;;;;4996711;28;20061;-69
2023/06/01 03:02:45;;;;;;;5.75;2.10;;;16.40;99.90;;;;;;4997918;28;20073;-69
2023/06/01 03:05:17;;;;;;;4.68;1.80;;;16.20;99.90;;;;;;4996899;28;20027;-69
2023/06/01 03:07:46;;;;;;;3.78;1.80;;;16.20;99.90;;;;;;4996873;28;20073;-69
2023/06/01 03:10:12;;;;;;;4.40;2.08;;;16.10;99.90;;;;;;4996872;28;20117;-69
2023/06/01 03:12:38;;;;;;;3.05;2.10;;;16.00;99.90;;;;;;4997622;28;20074;-69
2023/06/01 03:15:04;;;;;;;5.97;2.15;;;16.00;99.90;;;;;;4996542;28;20030;-69
2023/06/01 03:17:31;;;;;;;5.00;2.20;;;16.00;99.90;;;;;;4996610;28;20113;-69
2023/06/01 03:19:57;;;;;;;4.70;2.08;;;15.80;99.90;;;;;;4996967;28;20030;-69
2023/06/01 03:22:23;;;;;;;6.38;2.08;;;15.70;99.90;;;;;;4996526;28;20022;-69
2023/06/01 03:24:52;;;;;;;3.60;1.98;;;15.80;99.90;;;;;;4997454;28;20030;-69
2023/06/01 03:27:19;;;;;;;7.22;2.28;;;15.90;99.90;;;;;;4996792;28;20026;-69
2023/06/01 03:29:44;;;;;;;3.78;2.42;;;16.00;99.90;;;;;;4996498;28;20061;-69
2023/06/01 03:32:10;;;;;;;6.47;1.98;;;16.00;99.90;;;;;;4996558;28;20034;-69
2023/06/01 03:34:36;;;;;;;9.52;2.28;;;15.90;99.90;;;;;;4996397;28;20050;-69
2023/06/01 03:37:04;;;;;;;6.13;2.17;;;15.90;99.90;;;;;;4996998;28;20069;-69
2023/06/01 03:39:33;;;;;;;4.85;1.85;;;15.90;99.90;;;;;;4997190;28;20018;-69
2023/06/01 03:41:58;;;;;;;5.13;1.85;;;15.80;99.90;;;;;;4996423;28;20019;-68
2023/06/01 03:44:24;;;;;;;3.55;1.95;;;15.80;99.90;;;;;;4996676;28;20036;-68
2023/06/01 03:46:50;;;;;;;6.47;2.33;;;15.80;99.90;;;;;;4996194;28;20023;-69
2023/06/01 03:49:15;;;;;;;9.23;2.67;;;15.70;99.90;;;;;;4996189;28;20053;-69
2023/06/01 03:51:41;;;;;;;10.18;2.55;;;15.70;99.90;;;;;;4997445;28;20018;-69
2023/06/01 03:54:07;;;;;;;6.22;2.58;;;15.70;99.90;;;;;;4997068;28;20066;-69
2023/06/01 03:56:32;;;;;;;5.60;2.17;;;15.70;99.90;;;;;;4996710;28;20029;-69
2023/06/01 03:58:58;;;;;;;6.50;2.05;;;15.60;99.90;;;;;;4996079;28;20027;-69
2023/06/01 04:01:28;;;;;;;4.10;2.40;;;15.70;99.90;;;;;;4997352;28;20030;-69
2023/06/01 04:03:55;;;;;;;6.28;2.10;;;15.70;99.90;;;;;;4997172;28;20024;-69
2023/06/01 04:06:21;;;;;;;7.60;2.58;;;15.70;99.90;;;;;;4997463;28;20090;-69
2023/06/01 04:08:50;;;;;;;3.50;1.88;;;15.70;99.90;;;;;;4999959;28;20118;-69
2023/06/01 04:11:17;;;;;;;3.67;2.53;;;15.80;99.90;;;;;;4999561;28;20088;-69
2023/06/01 04:13:43;;;;;;;7.85;2.10;;;15.70;99.90;;;;;;4999639;28;20143;-69
2023/06/01 04:16:12;;;;;;;6.20;2.08;;;15.80;99.90;;;;;;4999452;28;20030;-69
2023/06/01 04:18:38;;;;;;;6.70;2.53;;;15.80;99.90;;;;;;5000244;28;20022;-69
2023/06/01 04:21:03;;;;;;;6.20;2.45;;;15.70;99.90;;;;;;4999550;28;20065;-69
2023/06/01 04:23:30;;;;;;;9.07;2.28;;;15.70;99.90;;;;;;4999753;28;20085;-69
2023/06/01 04:25:59;;;;;;;8.32;2.28;;;15.80;99.90;;;;;;4999283;28;20023;-69
2023/06/01 04:28:28;;;;;;;5.72;2.33;;;15.90;99.90;;;;;;4999104;28;20026;-69
2023/06/01 04:30:54;;;;;;;4.38;2.25;;;16.00;99.90;;;;;;4999881;28;20057;-69
2023/06/01 04:33:19;;;;;;;6.00;2.22;;;15.90;99.90;;;;;;4999366;28;20026;-69
2023/06/01 04:35:45;;;;;;;4.63;2.30;;;16.00;99.90;;;;;;4999335;28;20030;-69
2023/06/01 04:38:11;;;;;;;12.65;2.80;;;15.90;99.90;;;;;;4999599;28;20029;-69
2023/06/01 04:40:37;;;;;;;12.45;2.33;;;16.10;99.90;;;;;;4999150;28;20026;-68
2023/06/01 04:43:02;;;;;;;6.10;2.55;;;16.20;99.90;;;;;;4999882;28;20137;-69
2023/06/01 04:45:33;;;;;;;5.63;2.65;;;16.10;99.90;;;;;;4999812;28;20022;-69
2023/06/01 04:47:59;;;;;;;6.15;2.47;;;16.30;99.90;;;;;;4999798;28;20019;-69
2023/06/01 04:50:28;;;;;;;8.35;2.33;;;16.40;99.90;;;;;;4999235;28;20026;-69
2023/06/01 04:52:55;;;;;;;10.95;2.72;;;16.40;99.90;;;;;;4999563;28;20026;-69
2023/06/01 04:55:20;;;;;;;6.28;2.58;;;16.50;99.90;;;;;;4998839;28;20033;-69
2023/06/01 04:57:46;;;;;;;7.88;2.42;;;16.50;99.90;;;;;;4999477;28;20030;-69
2023/06/01 05:00:17;;;;;;;6.90;2.28;;;16.60;99.90;;;;;;4999524;28;20113;-69
2023/06/01 05:02:44;;;;;;;6.03;2.47;;;16.50;99.90;;;;;;4999058;28;20023;-69
2023/06/01 05:05:11;;;;;;;6.57;2.72;;;16.50;99.90;;;;;;4998609;28;20121;-69
2023/06/01 05:07:38;;;;;;;4.75;2.42;;;16.50;99.90;;;;;;4998829;28;20073;-69
2023/06/01 05:10:06;;;;;;;7.03;2.25;;;16.60;99.90;;;;;;4998533;28;20049;-69
2023/06/01 05:12:32;;;;;;;9.93;2.80;;;16.60;99.90;;;;;;4998515;28;20033;-68
2023/06/01 05:14:58;;;;;;;5.03;2.30;;;16.60;99.90;;;;;;4998796;28;20034;-69
2023/06/01 05:17:24;;;;;;;6.43;2.03;;;16.70;99.90;;;;;;4998591;28;20041;-69
2023/06/01 05:19:49;;;;;;;4.88;2.67;;;16.70;99.90;;;;;;4998131;28;20019;-69
2023/06/01 05:22:15;;;;;;;7.13;2.45;;;16.80;99.90;;;;;;4998398;28;20023;-69
2023/06/01 05:24:40;;;;;;;7.38;2.17;;;16.80;99.90;;;;;;4998129;28;20022;-69
2023/06/01 05:27:06;;;;;;;6.40;2.20;;;16.80;99.90;;;;;;4998519;28;20034;-69
2023/06/01 05:29:32;;;;;;;5.70;2.03;;;16.80;99.90;;;;;;4998803;28;20041;-69
2023/06/01 05:31:57;;;;;;;5.75;2.10;;;16.70;99.90;;;;;;4998321;28;20032;-69
2023/06/01 05:34:23;;;;;;;6.82;2.38;;;16.80;99.90;;;;;;4998240;28;20058;-69
2023/06/01 05:36:51;;;;;;;7.15;2.50;;;16.90;99.90;;;;;;4997803;28;20109;-69
2023/06/01 05:39:16;;;;;;;6.53;2.05;;;16.90;99.90;;;;;;4998879;28;20045;-69
2023/06/01 05:41:42;;;;;;;7.72;2.67;;;17.00;99.90;;;;;;4998208;28;20052;-69
2023/06/01 05:44:08;;;;;;;10.63;2.78;;;17.00;99.90;;;;;;4998183;28;20046;-69
2023/06/01 05:46:34;;;;;;;11.20;2.55;;;17.10;99.90;;;;;;4998290;28;20033;-69
2023/06/01 05:49:00;;;;;;;7.00;2.17;;;17.10;99.90;;;;;;4997560;28;20030;-68
2023/06/01 05:51:25;;;;;;;7.75;2.50;;;17.10;99.90;;;;;;4997808;28;20065;-69
2023/06/01 05:53:51;;;;;;;4.00;2.35;;;17.20;99.90;;;;;;4997559;28;20034;-69
2023/06/01 05:56:17;;;;;;;6.13;2.33;;;17.20;99.90;;;;;;4998077;28;20066;-69
2023/06/01 05:58:43;;;;;;;12.70;3.13;;;17.30;99.90;;;;;;4997333;28;20076;-69
2023/06/01 06:01:10;;;;;;;5.45;2.10;;;17.30;99.90;;;;;;4997534;28;20027;-69
2023/06/01 06:03:35;;;;;;;7.90;2.40;;;17.40;99.90;;;;;;4997500;28;20034;-69
2023/06/01 06:06:01;;;;;;;11.00;2.70;;;17.50;99.90;;;;;;4997768;28;20026;-69
2023/06/01 06:08:27;;;;;;;7.15;2.72;;;17.60;99.90;;;;;;4998212;28;20061;-69
2023/06/01 06:10:52;;;;;;;7.75;3.00;;;17.50;99.90;;;;;;4998276;28;20023;-69
2023/06/01 06:13:18;;;;;;;10.52;3.33;;;17.60;99.90;;;;;;4997212;28;20060;-69
2023/06/01 06:15:44;;;;;;;5.95;2.78;;;17.50;99.90;;;;;;4998252;28;20029;-69
2023/06/01 06:18:10;;;;;;;9.20;2.50;;;17.50;99.90;;;;;;4996952;28;20077;-69
2023/06/01 06:20:35;;;;;;;6.95;2.47;;;17.60;99.90;;;;;;4998290;28;20029;-69
2023/06/01 06:23:01;;;;;;;6.20;2.17;;;17.60;99.90;;;;;;4997202;28;20029;-69
2023/06/01 06:25:26;;;;;;;4.05;2.47;;;17.80;99.90;;;;;;4997385;28;20033;-69
2023/06/01 06:27:52;;;;;;;6.93;3.05;;;17.70;99.90;;;;;;4997895;28;20062;-69
2023/06/01 06:30:17;;;;;;;6.88;2.85;;;17.70;99.90;;;;;;5020462;23;20049;-74
2023/06/01 06:32:43;;;;;;;6.75;2.25;;;17.70;99.90;;;;;;4998272;28;20026;-75
2023/06/01 06:35:12;;;;;;;7.78;2.60;;;17.80;99.90;;;;;;4998187;28;20049;-75
2023/06/01 06:37:41;;;;;;;4.53;2.05;;;17.90;99.90;;;;;;4996924;28;20030;-75
2023/06/01 06:40:07;;;;;;;5.20;2.20;;;18.00;99.90;;;;;;4997800;28;20029;-75
2023/06/01 06:42:33;;;;;;;4.45;1.95;;;18.00;99.90;;;;;;4996886;28;20029;-74
2023/06/01 06:44:58;;;;;;;6.97;2.00;;;18.10;99.90;;;;;;4997198;28;20027;-74
2023/06/01 06:47:24;;;;;;;7.00;2.20;;;18.20;99.90;;;;;;4996893;28;20023;-74
2023/06/01 06:49:51;;;;;;;7.10;2.28;;;18.30;99.90;;;;;;4997697;28;20086;-74
2023/06/01 06:52:16;;;;;;;7.85;2.47;;;18.30;99.90;;;;;;4997774;28;20026;-75
2023/06/01 06:54:43;;;;;;;5.18;2.17;;;18.30;99.90;;;;;;4997667;28;20053;-74
2023/06/01 06:57:08;;;;;;;8.52;2.15;;;18.40;99.90;;;;;;4997547;28;20026;-75
2023/06/01 06:59:34;;;;;;;7.00;2.42;;;18.40;99.90;;;;;;4996666;28;20077;-75
2023/06/01 07:02:00;;;;;;;5.90;2.22;;;18.50;99.90;;;;;;4996820;28;20014;-75
2023/06/01 07:04:26;;;;;;;10.13;2.38;;;18.50;99.90;;;;;;4996631;28;20114;-74
2023/06/01 07:06:53;;;;;;;6.07;2.38;;;18.60;99.90;;;;;;4996987;28;20030;-76
2023/06/01 07:09:18;;;;;;;5.32;2.20;;;18.70;99.90;;;;;;4996770;28;20026;-74
2023/06/01 07:11:44;;;;;;;40.00;5.68;;;18.80;99.90;;;;;;4997222;28;20026;-74
2023/06/01 07:14:10;;;;;;;11.05;2.83;;;18.80;99.90;;;;;;4996697;28;20026;-74
2023/06/01 07:16:36;;;;;;;7.13;2.00;;;18.90;99.90;;;;;;4997415;28;20023;-75
2023/06/01 07:19:01;;;;;;;7.03;2.70;;;18.90;99.90;;;;;;4996969;28;20029;-75
2023/06/01 07:21:27;;;;;;;23.90;3.63;;;19.10;99.90;;;;;;4996557;28;20022;-74
2023/06/01 07:23:53;;;;;;;40.47;6.43;;;19.10;99.90;;;;;;4996794;28;20113;-76
2023/06/01 07:26:18;;;;;;;17.30;2.60;;;19.10;99.90;;;;;;4997311;28;20081;-75
2023/06/01 07:28:44;;;;;;;10.80;2.40;;;19.30;99.90;;;;;;4996336;28;20041;-76
2023/06/01 07:31:10;;;;;;;24.35;5.88;;;19.30;99.90;;;;;;4996578;28;20053;-77
2023/06/01 07:33:36;;;;;;;7.65;2.20;;;19.30;99.90;;;;;;4996993;28;20090;-75
2023/06/01 07:36:03;;;;;;;10.65;2.28;;;19.40;99.90;;;;;;4996538;28;20031;-75
2023/06/01 07:38:29;;;;;;;7.72;1.90;;;19.50;99.90;;;;;;4996184;28;20089;-78
2023/06/01 07:40:55;;;;;;;12.10;2.10;;;19.50;99.90;;;;;;4997020;28;20026;-75
2023/06/01 07:43:20;;;;;;;8.45;2.60;;;19.60;99.90;;;;;;5000124;28;20042;-76
2023/06/01 07:45:46;;;;;;;5.38;2.33;;;19.80;99.90;;;;;;5000056;28;20026;-76
2023/06/01 07:48:11;;;;;;;6.72;2.50;;;20.00;99.90;;;;;;5001189;28;20113;-77
2023/06/01 07:50:37;;;;;;;10.00;3.45;;;19.90;99.90;;;;;;4999931;28;20109;-76
2023/06/01 07:53:03;;;;;;;16.90;3.88;;;20.00;99.90;;;;;;5000189;28;20027;-76
2023/06/01 07:55:29;;;;;;;18.85;5.38;;;20.00;99.90;;;;;;4999872;28;20023;-77
2023/06/01 07:57:54;;;;;;;19.23;2.90;;;20.10;99.90;;;;;;4999914;28;20030;-77
2023/06/01 08:00:20;;;;;;;14.82;3.33;;;20.00;99.90;;;;;;4999960;28;20033;-77
2023/06/01 08:02:46;;;;;;;16.27;3.55;;;20.10;99.90;;;;;;5001551;28;20018;-76
2023/06/01 08:05:11;;;;;;;20.02;5.03;;;20.10;99.90;;;;;;5002678;28;20018;-75
2023/06/01 08:07:38;;;;;;;5.68;2.08;;;20.20;99.90;;;;;;5000620;28;20099;-75
2023/06/01 08:10:08;;;;;;;9.25;1.63;;;20.20;99.90;;;;;;5000495;28;20058;-76
2023/06/01 08:12:35;;;;;;;8.30;2.20;;;20.40;99.90;;;;;;4999656;28;20027;-74
2023/06/01 08:15:01;;;;;;;4.35;1.75;;;20.70;99.90;;;;;;4999823;28;20228;-74
2023/06/01 08:17:27;;;;;;;7.05;1.90;;;20.70;99.90;;;;;;4999542;28;20026;-74
2023/06/01 08:19:53;;;;;;;4.45;2.40;;;21.10;99.90;;;;;;4999357;28;20026;-74
2023/06/01 08:22:20;;;;;;;5.88;1.80;;;21.20;99.90;;;;;;4999513;28;20026;-74
2023/06/01 08:24:47;;;;;;;7.13;3.35;;;21.30;99.90;;;;;;5000465;28;20029;-74
2023/06/01 08:27:23;;;;;;;7.93;2.30;;;21.30;99.90;;;;;;4999478;28;20031;-74
2023/06/01 08:29:49;;;;;;;3.85;1.88;;;21.30;99.90;;;;;;4999181;28;20030;-69
2023/06/01 08:32:16;;;;;;;5.60;2.45;;;21.30;99.90;;;;;;5000148;28;20065;-69
2023/06/01 08:34:46;;;;;;;6.18;1.80;;;21.20;99.90;;;;;;4999501;28;20034;-69
2023/06/01 08:37:15;;;;;;;7.95;2.38;;;21.40;99.90;;;;;;5000000;28;20034;-69
2023/06/01 08:39:41;;;;;;;2.92;1.80;;;21.50;99.90;;;;;;4999008;28;20026;-69
2023/06/01 08:42:08;;;;;;;5.95;2.83;;;21.60;99.90;;;;;;4999083;28;20025;-69
2023/06/01 08:44:39;;;;;;;8.48;2.33;;;21.60;99.90;;;;;;4998968;28;20058;-69
2023/06/01 08:47:06;;;;;;;6.32;2.30;;;21.50;99.90;;;;;;4999098;28;20029;-70
2023/06/01 08:49:32;;;;;;;6.43;2.20;;;21.50;99.90;;;;;;4998720;28;20122;-69
2023/06/01 08:52:02;;;;;;;8.00;1.92;;;21.70;99.90;;;;;;4999687;28;20022;-70
2023/06/01 08:54:30;;;;;;;8.70;2.30;;;21.90;99.90;;;;;;4999087;28;20019;-68
2023/06/01 08:57:02;;;;;;;6.10;1.90;;;22.00;99.90;;;;;;4999015;28;20141;-69
2023/06/01 08:59:28;;;;;;;;;;;21.90;99.90;;;;;;4999112;28;20030;-68
2023/06/01 09:01:54;;;;;;;4.60;2.10;;;21.90;99.90;;;;;;4999614;28;19910;-69
2023/06/01 09:04:20;;;;;;;5.95;2.92;;;22.00;99.90;;;;;;4999907;28;20022;-69
2023/06/01 09:06:45;;;;;;;5.53;2.17;;;22.00;99.90;;;;;;4999460;28;20027;-70
2023/06/01 09:09:12;;;;;;;9.10;2.38;;;22.00;99.90;;;;;;4998435;28;20030;-71
2023/06/01 09:11:38;;;;;;;6.30;2.22;;;22.20;99.90;;;;;;4999302;28;20116;-69
2023/06/01 09:14:24;;;;;;;5.88;2.75;;;22.60;99.90;;;;;;4998911;28;20026;-70
2023/06/01 09:16:50;;;;;;;6.80;2.20;;;22.70;99.90;;;;;;4999445;28;20089;-69
2023/06/01 09:19:20;;;;;;;2.42;1.70;;;22.70;99.90;;;;;;4998966;28;20057;-71
2023/06/01 09:21:58;;;;;;;6.07;1.75;;;22.60;99.90;;;;;;4999270;28;20029;-70
2023/06/01 09:24:25;;;;;;;6.97;2.33;;;22.80;99.90;;;;;;4998358;28;20027;-69
2023/06/01 09:26:57;;;;;;;4.75;1.73;;;22.80;99.90;;;;;;4998304;28;20073;-72
2023/06/01 09:29:22;;;;;;;5.90;2.38;;;22.80;99.90;;;;;;4999173;28;20031;-72
2023/06/01 09:31:48;;;;;;;5.55;1.98;;;22.70;99.90;;;;;;4998152;28;20030;-71
2023/06/01 09:34:18;;;;;;;5.00;1.85;;;22.70;99.90;;;;;;4999146;28;20031;-72
2023/06/01 09:36:48;;;;;;;2.95;2.03;;;22.70;99.90;;;;;;4998098;28;20137;-69
2023/06/01 09:39:16;;;;;;;10.40;2.28;;;22.70;99.90;;;;;;4998544;28;20027;-70
2023/06/01 09:41:55;;;;;;;7.65;2.35;;;23.10;99.90;;;;;;4997902;28;20054;-70
2023/06/01 09:44:32;;;;;;;8.80;2.22;;;23.80;99.90;;;;;;4998820;28;20022;-69
2023/06/01 09:47:00;;;;;;;5.93;2.28;;;24.00;99.90;;;;;;4997796;28;20058;-67
2023/06/01 09:49:41;;;;;;;4.78;1.95;;;24.10;99.90;;;;;;4997858;28;20030;-68
2023/06/01 09:52:07;;;;;;;6.25;2.22;;;24.20;99.90;;;;;;4997762;28;20023;-68
2023/06/01 09:54:48;;;;;;;6.72;1.90;;;24.00;99.90;;;;;;4998437;28;20030;-69
2023/06/01 09:57:29;;;;;;;;;;;24.10;99.90;;;;;;4998583;28;20022;-68
2023/06/01 09:59:54;;;;;;;5.45;1.90;;;24.10;99.90;;;;;;4998446;28;19909;-68
2023/06/01 10:02:22;;;;;;;4.20;2.05;;;24.10;99.90;;;;;;4997590;28;20026;-68
2023/06/01 10:04:50;;;;;;;8.38;2.63;;;24.40;99.90;;;;;;4997986;28;20026;-69
2023/06/01 10:07:16;;;;;;;4.75;2.28;;;24.80;99.90;;;;;;4997828;28;20081;-71
2023/06/01 10:09:45;;;;;;;7.80;2.05;;;24.90;99.90;;;;;;4997382;28;20022;-69
2023/06/01 10:12:11;;;;;;;5.25;2.03;;;25.00;99.90;;;;;;4997324;28;20032;-69
2023/06/01 10:14:38;;;;;;;8.50;2.05;;;25.20;99.90;;;;;;4997720;28;20117;-68
2023/06/01 10:17:05;;;;;;;4.22;2.10;;;25.30;99.90;;;;;;4998171;28;20034;-68
2023/06/01 10:19:31;;;;;;;3.50;2.08;;;25.40;99.90;;;;;;4998191;28;20097;-69
2023/06/01 10:21:57;;;;;;;4.60;2.15;;;25.30;99.90;;;;;;4997555;28;20028;-69
2023/06/01 10:24:23;;;;;;;3.70;2.05;;;25.30;99.90;;;;;;4998071;28;20105;-68
2023/06/01 10:27:23;;;;;;;7.65;1.85;;;25.50;99.90;;;;;;4998198;28;20058;-68
2023/06/01 10:29:51;;;;;;;7.63;2.33;;;25.70;99.90;;;;;;4996973;28;20038;-69
2023/06/01 10:32:48;;;;;;;5.95;1.92;;;25.80;99.90;;;;;;4997172;28;20034;-69
2023/06/01 10:35:26;;;;;;;4.47;2.05;;;25.90;99.90;;;;;;4996979;28;20018;-69
2023/06/01 10:38:07;;;;;;;3.47;2.15;;;26.10;99.90;;;;;;4997867;28;20038;-68
2023/06/01 10:40:37;;;;;;;4.10;2.20;;;26.00;99.90;;;;;;4997882;28;20087;-69
2023/06/01 10:43:03;;;;;;;3.65;2.17;;;26.20;99.90;;;;;;4997333;28;20038;-69
2023/06/01 10:45:35;;;;;;;7.35;2.15;;;26.20;99.90;;;;;;4997784;28;20108;-69
2023/06/01 10:48:03;;;;;;;6.28;2.58;;;26.60;99.90;;;;;;4997965;28;20053;-69
2023/06/01 10:50:29;;;;;;;8.57;2.67;;;26.90;99.90;;;;;;4997047;28;20034;-69
2023/06/01 10:52:55;;;;;;;5.20;2.40;;;27.20;99.90;;;;;;4996781;28;20081;-69
2023/06/01 10:55:26;;;;;;;7.72;2.95;;;27.10;99.90;;;;;;4997395;28;20031;-69
2023/06/01 10:58:12;;;;;;;;;;;27.30;99.90;;;;;;4997133;28;20036;-69
2023/06/01 11:00:41;;;;;;;3.20;1.73;;;27.60;98.20;;;;;;4997091;28;19909;-69
2023/06/01 11:03:06;;;;;;;6.88;2.42;;;27.90;97.40;;;;;;4997608;28;20028;-69
2023/06/01 11:05:51;;;;;;;7.50;2.20;;;28.20;96.70;;;;;;4997607;28;20109;-69
2023/06/01 11:08:28;;;;;;;5.57;2.00;;;29.20;94.50;;;;;;4996952;28;20027;-69
2023/06/01 11:11:02;;;;;;;7.78;2.20;;;28.70;95.00;;;;;;4996873;28;20037;-69
2023/06/01 11:13:35;;;;;;;3.47;2.03;;;28.60;94.80;;;;;;4996616;28;20080;-69
2023/06/01 11:16:04;;;;;;;5.00;1.90;;;28.80;94.60;;;;;;4997508;28;20030;-69
2023/06/01 11:18:57;;;;;;;3.38;2.05;;;29.50;92.10;;;;;;5001313;28;20121;-69
2023/06/01 11:21:24;;;;;;;5.40;2.40;;;30.40;90.20;;;;;;5001730;28;20026;-69
2023/06/01 11:23:51;;;;;;;4.43;2.22;;;30.10;90.70;;;;;;5001238;28;20030;-69
2023/06/01 11:26:19;;;;;;;3.15;2.25;;;29.60;91.00;;;;;;5000808;28;20112;-69
2023/06/01 11:28:46;;;;;;;6.10;2.55;;;29.50;89.30;;;;;;5000359;28;20058;-69
2023/06/01 11:31:14;;;;;;;4.95;1.90;;;29.30;88.90;;;;;;5001390;28;20034;-69
2023/06/01 11:33:40;;;;;;;8.27;1.70;;;29.20;88.90;;;;;;5000274;28;20054;-69
2023/06/01 11:36:10;;;;;;;7.00;2.22;;;29.40;91.20;;;;;;5001208;28;20029;-69
2023/06/01 11:38:39;;;;;;;7.10;2.25;;;29.80;88.30;;;;;;5000928;28;20121;-69
2023/06/01 11:41:04;;;;;;;3.42;1.98;;;29.80;84.90;;;;;;5000266;28;20022;-69
2023/06/01 11:43:31;;;;;;;4.88;2.00;;;30.60;83.80;;;;;;5001097;28;20025;-69
2023/06/01 11:46:05;;;;;;;3.63;1.80;;;30.20;80.30;;;;;;5000958;28;20026;-69
2023/06/01 11:48:31;;;;;;;4.45;1.80;;;29.90;84.30;;;;;;4999842;28;20061;-69
2023/06/01 11:51:00;;;;;;;3.95;2.20;;;30.10;83.10;;;;;;5000037;28;20029;-68
2023/06/01 11:53:26;;;;;;;3.30;2.20;;;30.20;85.40;;;;;;5000224;28;20089;-69
2023/06/01 11:55:53;;;;;;;5.95;1.90;;;30.30;82.30;;;;;;4999968;28;20027;-69
2023/06/01 11:58:27;;;;;;;5.28;2.35;;;31.20;79.60;;;;;;4999696;28;20031;-69
2023/06/01 12:01:03;;;;;;;2.22;1.70;;;30.90;75.70;;;;;;5000633;28;20027;-69
2023/06/01 12:03:31;;;;;;;2.58;1.92;;;30.00;74.30;;;;;;5000838;28;20037;-69
2023/06/01 12:05:58;;;;;;;6.63;2.20;;;30.30;75.00;;;;;;5000202;28;20034;-69
2023/06/01 12:08:25;;;;;;;4.15;1.88;;;30.50;76.80;;;;;;5000691;28;20022;-69
2023/06/01 12:10:52;;;;;;;5.50;1.98;;;30.70;75.40;;;;;;5000483;28;20081;-69
2023/06/01 12:13:19;;;;;;;3.17;1.80;;;30.90;75.20;;;;;;4999556;28;20080;-69
2023/06/01 12:15:46;;;;;;;3.40;1.75;;;31.10;76.10;;;;;;4999786;28;20022;-69
2023/06/01 12:18:12;;;;;;;4.03;2.22;;;31.30;82.60;;;;;;4999694;28;20030;-69
2023/06/01 12:20:41;;;;;;;3.25;1.95;;;31.10;68.90;;;;;;4999367;28;20018;-69
2023/06/01 12:23:15;;;;;;;3.45;1.85;;;31.10;68.30;;;;;;5000567;28;20024;-69
2023/06/01 12:25:57;;;;;;;3.33;2.08;;;31.50;67.40;;;;;;5000163;28;20029;-69
2023/06/01 12:28:25;;;;;;;2.47;1.90;;;31.50;66.70;;;;;;4999114;28;20026;-69
2023/06/01 12:31:08;;;;;;;6.65;2.30;;;31.00;68.40;;;;;;4999922;28;20125;-73
2023/06/01 12:33:36;;;;;;;4.90;2.40;;;31.00;69.30;;;;;;4999231;28;20037;-72
2023/06/01 12:36:03;;;;;;;8.52;2.35;;;30.40;67.40;;;;;;4999785;28;20030;-72
2023/06/01 12:38:37;;;;;;;5.13;2.22;;;30.40;68.90;;;;;;4999008;28;20026;-73
2023/06/01 12:41:11;;;;;;;6.13;2.30;;;30.30;67.90;;;;;;4999998;28;20030;-73
2023/06/01 12:43:37;;;;;;;5.10;2.28;;;29.90;70.20;;;;;;4999823;28;20022;-73
2023/06/01 12:46:06;;;;;;;5.03;2.40;;;29.70;72.00;;;;;;4999346;28;20117;-72
2023/06/01 12:48:33;;;;;;;19.00;3.25;;;29.20;70.60;;;;;;4998957;28;20034;-73
2023/06/01 12:50:58;;;;;;;2.83;1.88;;;29.10;73.90;;;;;;4999746;28;20026;-73